Time;durP1;ratioP1;P1;durP2;ratioP2;P2;SDS_P1;SDS_P2;PMS_P1;PMS_P2;Temp;Humidity;BMP_temperature;BMP_pressure;BME280_temperature;BME280_humidity;BME280_pressure;Samples;Min_cycle;Max_cycle;Signal;HPM_P1;HPM_P2
2023/06/18 00:00:40;;;;;;;9.07;5.50;;;22.90;89.80;;;;;;5055152;28;20021;-85
2023/06/18 00:03:06;;;;;;;7.60;5.40;;;22.90;89.80;;;;;;5055949;28;20044;-85
2023/06/18 00:05:37;;;;;;;8.45;5.18;;;23.00;89.80;;;;;;5054262;28;20021;-85
2023/06/18 00:08:18;;;;;;;7.28;5.97;;;22.90;90.00;;;;;;5054627;28;20033;-86
2023/06/18 00:10:44;;;;;;;;;;;22.90;89.80;;;;;;5114092;22;20029;-86
2023/06/18 00:13:09;;;;;;;8.48;5.30;;;22.80;89.60;;;;;;5033688;28;20377;-86
2023/06/18 00:15:35;;;;;;;7.20;5.63;;;22.90;89.60;;;;;;5035259;28;20080;-86
2023/06/18 00:18:00;;;;;;;8.45;6.45;;;23.40;90.00;;;;;;5035464;28;20032;-85
2023/06/18 00:20:26;;;;;;;6.00;5.50;;;22.90;89.70;;;;;;5034645;28;20465;-85
2023/06/18 00:22:53;;;;;;;8.77;6.30;;;22.90;89.70;;;;;;5034782;28;20068;-86
2023/06/18 00:25:19;;;;;;;6.43;5.82;;;22.80;89.70;;;;;;5039611;28;20071;-85
2023/06/18 00:27:45;;;;;;;9.63;6.18;;;22.90;90.00;;;;;;5055506;28;20070;-85
2023/06/18 00:30:11;;;;;;;6.38;5.78;;;22.90;89.90;;;;;;5054612;28;20025;-86
2023/06/18 00:32:37;;;;;;;7.65;6.75;;;22.80;90.10;;;;;;5054304;28;20033;-85
2023/06/18 00:35:04;;;;;;;9.43;6.82;;;22.60;90.00;;;;;;5055250;28;20029;-86
2023/06/18 00:37:30;;;;;;;9.32;5.97;;;22.70;90.20;;;;;;5054782;28;20028;-86
2023/06/18 00:39:55;;;;;;;7.20;5.85;;;22.90;90.40;;;;;;5054600;28;20450;-85
2023/06/18 00:42:21;;;;;;;6.45;5.60;;;22.70;90.50;;;;;;5055103;28;20032;-86
2023/06/18 00:44:47;;;;;;;11.38;6.28;;;22.60;90.70;;;;;;5055108;28;20036;-86
2023/06/18 00:47:13;;;;;;;7.32;6.63;;;23.20;90.90;;;;;;5054765;28;20025;-86
2023/06/18 00:49:43;;;;;;;8.00;5.68;;;22.60;90.80;;;;;;5055004;28;20033;-85
2023/06/18 00:52:12;;;;;;;8.48;6.07;;;22.50;90.80;;;;;;5054610;28;20263;-85
2023/06/18 00:54:39;;;;;;;8.25;7.03;;;22.80;91.20;;;;;;5053908;28;20033;-85
2023/06/18 00:57:08;;;;;;;9.70;6.60;;;23.10;91.00;;;;;;5054643;28;20029;-85
2023/06/18 00:59:37;;;;;;;11.27;6.18;;;22.50;91.00;;;;;;5054633;28;20025;-85
2023/06/18 01:02:03;;;;;;;9.40;6.78;;;22.40;91.10;;;;;;5053859;28;20025;-85
2023/06/18 01:04:32;;;;;;;6.93;6.22;;;22.40;91.10;;;;;;5054566;28;20028;-85
2023/06/18 01:06:59;;;;;;;9.93;6.90;;;22.40;91.20;;;;;;5054610;28;20025;-84
2023/06/18 01:09:26;;;;;;;6.88;6.28;;;22.40;91.30;;;;;;5054223;28;20078;-84
2023/06/18 01:11:53;;;;;;;8.13;6.38;;;22.40;91.30;;;;;;5054281;28;20052;-85
2023/06/18 01:14:25;;;;;;;10.38;6.78;;;22.90;91.50;;;;;;5054422;28;20051;-85
2023/06/18 01:17:01;;;;;;;7.60;6.70;;;22.40;91.40;;;;;;5053960;28;20025;-85
2023/06/18 01:19:47;;;;;;;7.95;6.03;;;22.40;91.50;;;;;;5054687;28;20029;-85
2023/06/18 01:22:19;;;;;;;9.30;7.05;;;22.30;91.60;;;;;;5053548;28;20027;-85
2023/06/18 01:24:54;;;;;;;8.05;6.75;;;22.30;91.70;;;;;;5053551;28;20021;-85
2023/06/18 01:27:21;;;;;;;9.60;7.38;;;22.70;91.80;;;;;;5054099;28;20051;-85
2023/06/18 01:29:51;;;;;;;10.35;7.13;;;22.20;91.90;;;;;;5053533;28;20029;-85
2023/06/18 01:32:17;;;;;;;12.75;7.68;;;22.20;92.10;;;;;;5054487;28;20033;-85
2023/06/18 01:34:43;;;;;;;10.75;6.85;;;22.20;92.10;;;;;;5054087;28;20472;-85
2023/06/18 01:37:16;;;;;;;8.35;7.65;;;22.20;92.20;;;;;;5053446;28;20483;-85
2023/06/18 01:40:03;;;;;;;8.60;7.80;;;22.20;92.20;;;;;;5053821;28;20021;-86
2023/06/18 01:42:33;;;;;;;7.97;7.22;;;22.20;92.30;;;;;;5053878;28;20024;-85
2023/06/18 01:45:21;;;;;;;8.65;7.95;;;22.10;92.40;;;;;;5053340;28;20028;-85
2023/06/18 01:47:49;;;;;;;8.25;7.55;;;22.00;92.60;;;;;;5053610;28;20531;-85
2023/06/18 01:50:17;;;;;;;8.65;7.85;;;22.00;92.70;;;;;;5052923;28;20390;-85
2023/06/18 01:52:44;;;;;;;11.27;8.98;;;21.90;92.80;;;;;;5053614;28;20036;-85
2023/06/18 01:55:11;;;;;;;11.10;8.05;;;21.80;92.80;;;;;;5053768;28;20021;-85
2023/06/18 01:57:37;;;;;;;10.20;8.15;;;22.00;93.00;;;;;;5053085;28;20567;-85
2023/06/18 02:00:04;;;;;;;9.00;8.13;;;21.90;93.00;;;;;;5053562;28;20120;-85
2023/06/18 02:02:30;;;;;;;9.80;8.85;;;21.90;92.90;;;;;;5053424;28;20477;-85
2023/06/18 02:04:56;;;;;;;9.85;7.90;;;21.90;93.10;;;;;;5052219;28;20029;-85
2023/06/18 02:07:22;;;;;;;12.20;8.52;;;21.90;93.10;;;;;;5052855;28;20025;-85
2023/06/18 02:09:48;;;;;;;8.73;7.85;;;21.80;93.20;;;;;;5053258;28;20074;-85
2023/06/18 02:12:13;;;;;;;9.70;8.25;;;21.80;93.20;;;;;;5052741;28;20175;-85
2023/06/18 02:14:39;;;;;;;9.38;8.32;;;21.80;93.30;;;;;;5053165;28;20032;-86
2023/06/18 02:17:05;;;;;;;8.75;7.90;;;21.80;93.40;;;;;;5053037;28;20032;-85
2023/06/18 02:19:31;;;;;;;10.65;8.32;;;21.80;93.50;;;;;;5052433;28;20031;-85
2023/06/18 02:21:57;;;;;;;13.10;8.75;;;21.70;93.60;;;;;;5052935;28;20108;-85
2023/06/18 02:24:23;;;;;;;11.25;8.48;;;21.60;93.80;;;;;;5053215;28;20033;-85
2023/06/18 02:26:48;;;;;;;8.90;8.20;;;21.60;94.00;;;;;;5051891;28;20219;-85
2023/06/18 02:29:14;;;;;;;9.20;8.25;;;21.60;94.10;;;;;;5053043;28;20021;-85
2023/06/18 02:31:39;;;;;;;9.25;8.40;;;21.70;94.20;;;;;;5097693;22;20060;-85
2023/06/18 02:34:05;;;;;;;13.57;8.73;;;21.50;94.30;;;;;;5031923;28;20485;-85
2023/06/18 02:36:32;;;;;;;11.27;8.90;;;21.50;94.60;;;;;;5032989;28;20099;-85
2023/06/18 02:38:58;;;;;;;10.85;8.63;;;21.50;94.70;;;;;;5031962;28;20124;-84
2023/06/18 02:41:23;;;;;;;11.23;9.18;;;21.60;94.80;;;;;;5032271;28;20120;-84
2023/06/18 02:43:49;;;;;;;13.23;9.45;;;21.60;95.00;;;;;;5032542;28;20044;-85
2023/06/18 02:46:19;;;;;;;10.13;8.38;;;21.60;95.10;;;;;;5032056;28;20025;-85
2023/06/18 02:48:44;;;;;;;10.63;9.55;;;21.70;95.30;;;;;;5032673;28;20030;-84
2023/06/18 02:51:10;;;;;;;14.98;9.35;;;21.60;95.40;;;;;;5032254;28;20032;-85
2023/06/18 02:53:36;;;;;;;9.63;8.68;;;21.50;95.50;;;;;;5032299;28;20037;-85
2023/06/18 02:56:01;;;;;;;12.23;9.50;;;21.50;95.60;;;;;;5032538;28;20017;-85
2023/06/18 02:58:30;;;;;;;16.20;9.82;;;21.40;95.70;;;;;;5033036;28;20485;-85
2023/06/18 03:00:59;;;;;;;11.40;9.40;;;21.50;95.70;;;;;;5031491;28;20076;-85
2023/06/18 03:03:25;;;;;;;10.85;9.77;;;21.40;95.80;;;;;;5030588;28;20405;-85
2023/06/18 03:05:51;;;;;;;13.18;10.48;;;22.40;96.30;;;;;;5031711;28;20389;-85
2023/06/18 03:08:18;;;;;;;11.60;10.40;;;21.40;96.20;;;;;;5031363;28;20029;-85
2023/06/18 03:10:44;;;;;;;15.60;10.73;;;21.60;96.40;;;;;;5032185;28;20421;-85
2023/06/18 03:13:09;;;;;;;11.80;9.10;;;21.30;96.40;;;;;;5032492;28;20021;-85
2023/06/18 03:15:35;;;;;;;13.98;9.57;;;21.30;96.50;;;;;;5031816;28;20025;-86
2023/06/18 03:18:01;;;;;;;10.98;9.35;;;21.50;96.50;;;;;;5031685;28;20032;-85
2023/06/18 03:20:30;;;;;;;14.63;10.35;;;21.60;96.60;;;;;;5032651;28;20026;-85
2023/06/18 03:22:56;;;;;;;11.90;10.15;;;21.90;96.80;;;;;;5031693;28;20037;-85
2023/06/18 03:25:22;;;;;;;14.05;10.68;;;21.20;96.80;;;;;;5032538;28;20028;-86
2023/06/18 03:27:48;;;;;;;12.13;10.27;;;21.30;96.90;;;;;;5031466;28;20021;-85
2023/06/18 03:30:14;;;;;;;13.65;10.95;;;21.30;96.90;;;;;;5031643;28;20041;-85
2023/06/18 03:32:40;;;;;;;12.48;9.70;;;21.30;97.00;;;;;;5031849;28;20029;-85
2023/06/18 03:35:18;;;;;;;13.38;10.57;;;22.00;97.20;;;;;;5032254;28;20486;-85
2023/06/18 03:37:59;;;;;;;20.55;10.63;;;21.40;96.90;;;;;;5032269;28;20025;-85
2023/06/18 03:40:43;;;;;;;14.00;11.27;;;21.90;97.10;;;;;;5032237;28;20029;-85
2023/06/18 03:43:09;;;;;;;16.42;11.77;;;22.10;97.20;;;;;;5031833;28;20059;-85
2023/06/18 03:45:44;;;;;;;15.15;11.50;;;21.40;97.10;;;;;;5031565;28;20108;-85
2023/06/18 03:48:10;;;;;;;17.50;11.85;;;21.50;97.20;;;;;;5032236;28;20022;-85
2023/06/18 03:50:35;;;;;;;16.65;11.40;;;21.30;97.10;;;;;;5031339;28;20028;-86
2023/06/18 03:53:01;;;;;;;12.10;10.90;;;21.30;97.20;;;;;;5031929;28;20025;-85
2023/06/18 03:55:26;;;;;;;14.70;11.02;;;21.20;97.30;;;;;;5031962;28;20056;-85
2023/06/18 03:57:52;;;;;;;12.40;11.18;;;21.20;97.40;;;;;;5030871;28;20030;-85
2023/06/18 04:00:23;;;;;;;13.80;11.20;;;21.10;97.50;;;;;;5031569;28;20044;-85
2023/06/18 04:02:51;;;;;;;13.25;11.80;;;21.20;97.50;;;;;;5031943;28;20037;-84
2023/06/18 04:05:20;;;;;;;13.10;11.68;;;21.90;97.70;;;;;;5031321;28;20038;-85
2023/06/18 04:07:45;;;;;;;21.08;11.52;;;21.90;97.80;;;;;;5031816;28;20382;-84
2023/06/18 04:10:11;;;;;;;17.42;12.23;;;21.20;97.60;;;;;;5031993;28;20100;-84
2023/06/18 04:12:42;;;;;;;19.85;11.85;;;21.20;97.60;;;;;;5029659;28;20132;-85
2023/06/18 04:15:23;;;;;;;13.60;11.20;;;20.90;97.60;;;;;;5030951;28;20482;-85
2023/06/18 04:17:49;;;;;;;15.60;12.52;;;21.90;97.90;;;;;;5029516;28;20033;-84
2023/06/18 04:20:14;;;;;;;14.52;12.13;;;21.60;97.70;;;;;;5031549;28;20432;-84
2023/06/18 04:22:58;;;;;;;14.23;11.45;;;22.00;97.80;;;;;;5031749;28;20494;-85
2023/06/18 04:25:23;;;;;;;14.25;11.55;;;21.20;97.60;;;;;;5030920;28;20033;-85
2023/06/18 04:27:59;;;;;;;14.80;11.60;;;21.30;97.60;;;;;;5031778;28;20026;-85
2023/06/18 04:30:24;;;;;;;18.17;12.30;;;22.00;98.00;;;;;;5032187;28;20029;-86
2023/06/18 04:32:50;;;;;;;15.80;11.80;;;21.80;97.80;;;;;;5034607;28;20388;-85
2023/06/18 04:35:22;;;;;;;15.82;12.38;;;21.20;97.70;;;;;;5035138;28;20026;-86
2023/06/18 04:38:09;;;;;;;16.50;13.15;;;21.90;97.90;;;;;;5034755;28;20111;-85
2023/06/18 04:40:50;;;;;;;18.73;12.20;;;20.70;97.60;;;;;;5034389;28;20532;-86
2023/06/18 04:43:17;;;;;;;17.02;12.48;;;21.60;97.80;;;;;;5034900;28;20033;-85
2023/06/18 04:45:46;;;;;;;15.65;12.55;;;21.10;97.80;;;;;;5030697;28;20109;-85
2023/06/18 04:48:14;;;;;;;18.92;12.50;;;21.10;97.80;;;;;;5035165;28;20416;-85
2023/06/18 04:50:39;;;;;;;15.15;11.70;;;21.00;97.80;;;;;;5049851;22;20540;-85
2023/06/18 04:53:05;;;;;;;21.50;12.35;;;21.40;97.90;;;;;;5054535;28;20029;-85
2023/06/18 04:55:30;;;;;;;17.35;12.18;;;21.10;97.90;;;;;;5054829;28;20391;-85
2023/06/18 04:57:56;;;;;;;16.05;12.35;;;21.10;97.90;;;;;;5054506;28;20540;-85
2023/06/18 05:00:22;;;;;;;15.05;12.45;;;21.20;97.80;;;;;;5054047;28;20545;-88
2023/06/18 05:02:48;;;;;;;15.20;12.65;;;21.20;98.00;;;;;;5054812;28;20036;-85
2023/06/18 05:05:15;;;;;;;14.70;12.40;;;21.30;98.00;;;;;;5054570;28;20454;-86
2023/06/18 05:07:50;;;;;;;19.00;12.73;;;21.10;97.80;;;;;;5049117;28;20289;-86
2023/06/18 05:10:35;;;;;;;13.93;12.18;;;21.10;97.80;;;;;;5050863;28;20067;-85
2023/06/18 05:13:01;;;;;;;20.40;12.77;;;21.10;98.10;;;;;;5052923;28;20028;-85
2023/06/18 05:15:26;;;;;;;13.82;11.82;;;21.30;97.80;;;;;;5051780;28;20380;-85
2023/06/18 05:18:04;;;;;;;16.88;13.10;;;21.10;97.80;;;;;;5049951;28;20414;-87
2023/06/18 05:32:57;;;;;;;15.27;13.63;;;21.20;97.80;;;;;;4928025;28;20039;-88
2023/06/18 05:39:07;;;;;;;20.10;15.63;;;21.70;97.80;;;;;;4918221;29;20420;-87
2023/06/18 05:41:41;;;;;;;18.15;13.98;;;20.90;97.50;;;;;;4920701;29;20035;-88
2023/06/18 05:44:07;;;;;;;20.98;14.75;;;22.10;97.90;;;;;;4969089;28;20049;-88
2023/06/18 05:46:50;;;;;;;15.02;13.50;;;22.10;97.70;;;;;;4973584;28;20121;-90
2023/06/18 05:49:35;;;;;;;16.27;14.65;;;21.30;97.60;;;;;;4973350;28;20382;-88
2023/06/18 05:52:00;;;;;;;15.50;13.70;;;22.30;97.70;;;;;;4972425;28;20054;-84
2023/06/18 05:54:44;;;;;;;16.35;14.15;;;21.90;97.60;;;;;;4973070;28;20391;-88
2023/06/18 05:57:11;;;;;;;16.48;14.25;;;21.50;97.20;;;;;;4972370;28;20019;-88
2023/06/18 05:59:36;;;;;;;15.90;14.23;;;21.80;97.00;;;;;;4999430;28;20489;-87
2023/06/18 06:02:17;;;;;;;17.25;15.48;;;21.70;96.90;;;;;;5036526;28;20112;-87
2023/06/18 06:04:43;;;;;;;28.05;15.60;;;22.40;97.00;;;;;;5032868;28;20029;-87
2023/06/18 06:07:09;;;;;;;18.10;15.85;;;22.40;97.00;;;;;;5033624;28;20500;-87
2023/06/18 06:09:50;;;;;;;16.45;14.32;;;21.80;97.00;;;;;;5033293;28;20504;-87
2023/06/18 06:12:15;;;;;;;16.58;14.85;;;21.70;96.60;;;;;;5033381;28;20032;-84
2023/06/18 06:14:41;;;;;;;18.48;16.00;;;22.50;96.70;;;;;;5032578;28;20021;-87
2023/06/18 06:17:21;;;;;;;16.35;14.48;;;22.40;96.90;;;;;;5049938;28;20028;-87
2023/06/18 06:19:47;;;;;;;17.88;14.88;;;21.80;97.00;;;;;;5049625;28;20104;-85
2023/06/18 06:22:12;;;;;;;19.20;16.85;;;22.50;97.20;;;;;;5050853;28;20117;-86
2023/06/18 06:24:38;;;;;;;16.40;14.68;;;21.90;97.40;;;;;;5050816;28;20116;-86
2023/06/18 06:27:04;;;;;;;16.38;13.88;;;22.00;97.30;;;;;;5050553;28;20040;-86
2023/06/18 06:29:30;;;;;;;15.45;13.73;;;21.80;97.20;;;;;;5050568;28;20132;-85
2023/06/18 06:31:55;;;;;;;14.73;13.30;;;21.90;96.80;;;;;;5049510;28;20103;-86
2023/06/18 06:34:21;;;;;;;16.45;13.48;;;21.90;96.40;;;;;;5050521;28;20021;-86
2023/06/18 06:36:48;;;;;;;15.93;13.00;;;21.80;95.70;;;;;;5050510;28;20029;-86
2023/06/18 06:39:13;;;;;;;15.40;11.98;;;21.90;95.40;;;;;;5049147;28;20079;-86
2023/06/18 06:41:39;;;;;;;12.40;11.18;;;21.90;95.20;;;;;;5050971;28;20029;-85
2023/06/18 06:44:05;;;;;;;14.35;12.77;;;22.10;95.10;;;;;;5046890;28;20479;-85
2023/06/18 06:46:30;;;;;;;13.32;11.57;;;21.90;94.30;;;;;;5049764;28;20476;-85
2023/06/18 06:48:56;;;;;;;13.93;10.45;;;21.90;94.20;;;;;;5050518;28;20025;-85
2023/06/18 06:51:21;;;;;;;12.63;10.60;;;21.90;94.10;;;;;;5050794;28;20051;-85
2023/06/18 06:53:47;;;;;;;13.98;10.88;;;22.00;94.00;;;;;;5049873;28;20059;-87
2023/06/18 06:56:12;;;;;;;13.82;11.00;;;22.00;93.70;;;;;;5050729;28;20033;-85
2023/06/18 06:58:38;;;;;;;15.63;12.48;;;22.00;93.40;;;;;;5051276;28;20021;-85
2023/06/18 07:01:03;;;;;;;12.93;11.20;;;22.00;93.40;;;;;;5050172;28;20029;-85
2023/06/18 07:03:29;;;;;;;17.42;11.93;;;22.10;93.30;;;;;;5050979;28;20076;-86
2023/06/18 07:05:54;;;;;;;12.93;11.68;;;22.10;93.00;;;;;;5050231;28;20121;-86
2023/06/18 07:08:20;;;;;;;24.60;11.77;;;22.20;93.30;;;;;;5049973;28;20036;-85
2023/06/18 07:10:45;;;;;;;13.73;11.70;;;22.20;93.30;;;;;;5051450;28;20090;-85
2023/06/18 07:13:12;;;;;;;12.98;11.68;;;22.20;93.10;;;;;;5051240;28;20021;-85
2023/06/18 07:15:38;;;;;;;13.23;11.93;;;22.20;93.10;;;;;;5051738;28;20025;-82
2023/06/18 07:18:03;;;;;;;15.40;10.32;;;22.60;93.10;;;;;;5051850;28;20107;-86
2023/06/18 07:20:29;;;;;;;11.18;9.98;;;22.20;93.10;;;;;;5050949;28;20075;-86
2023/06/18 07:22:55;;;;;;;12.48;10.75;;;22.10;92.80;;;;;;5052041;28;20029;-86
2023/06/18 07:25:20;;;;;;;17.33;11.38;;;22.30;92.70;;;;;;5052050;28;20041;-84
2023/06/18 07:27:46;;;;;;;16.48;11.48;;;22.50;92.90;;;;;;5050006;28;20021;-83
2023/06/18 07:30:12;;;;;;;13.85;10.77;;;22.30;92.70;;;;;;5047866;28;20033;-85
2023/06/18 07:32:38;;;;;;;11.85;10.75;;;22.30;92.30;;;;;;5042881;28;20025;-87
2023/06/18 07:35:04;;;;;;;13.98;10.77;;;22.40;92.40;;;;;;5049808;28;20013;-85
2023/06/18 07:37:29;;;;;;;12.27;10.90;;;22.40;92.40;;;;;;5050013;28;20032;-87
2023/06/18 07:39:55;;;;;;;12.82;11.50;;;22.50;92.20;;;;;;5049496;28;20016;-88
2023/06/18 07:42:20;;;;;;;12.30;10.52;;;22.40;92.50;;;;;;5051500;28;20167;-85
2023/06/18 07:44:46;;;;;;;13.85;11.15;;;22.50;92.40;;;;;;5052046;28;20051;-86
2023/06/18 07:47:12;;;;;;;16.70;11.77;;;22.40;92.40;;;;;;5052094;28;20108;-85
2023/06/18 07:49:37;;;;;;;11.35;10.10;;;22.70;92.30;;;;;;5051374;28;20083;-86
2023/06/18 07:52:03;;;;;;;13.95;11.48;;;22.50;92.00;;;;;;5050730;28;20048;-86
2023/06/18 07:54:29;;;;;;;16.30;11.52;;;22.60;92.00;;;;;;5051026;28;20108;-86
2023/06/18 07:56:54;;;;;;;11.55;10.55;;;22.60;92.10;;;;;;5051337;28;20021;-86
2023/06/18 07:59:20;;;;;;;11.45;10.43;;;22.60;92.10;;;;;;5053036;28;20491;-91
2023/06/18 08:01:46;;;;;;;12.52;11.02;;;22.60;92.00;;;;;;5054200;28;20025;-93
2023/06/18 08:04:11;;;;;;;10.65;8.98;;;22.60;91.90;;;;;;5053235;28;20063;-90
2023/06/18 08:06:37;;;;;;;12.35;11.18;;;22.70;92.10;;;;;;5056416;28;20033;-91
2023/06/18 08:09:03;;;;;;;13.02;11.73;;;22.70;92.30;;;;;;5056666;28;20063;-89
2023/06/18 08:11:29;;;;;;;12.98;10.43;;;22.70;92.30;;;;;;5056514;28;20025;-92
2023/06/18 08:13:55;;;;;;;16.02;10.27;;;22.70;92.50;;;;;;5056975;28;20083;-91
2023/06/18 08:16:23;;;;;;;11.70;9.63;;;22.90;92.10;;;;;;5057085;28;20017;-93
2023/06/18 08:18:48;;;;;;;16.60;11.52;;;22.80;91.80;;;;;;5056762;28;20079;-89
2023/06/18 08:21:14;;;;;;;13.75;10.10;;;22.80;91.60;;;;;;5056245;28;20051;-91
2023/06/18 08:23:39;;;;;;;12.55;11.20;;;22.80;91.80;;;;;;5054499;28;20120;-86
2023/06/18 08:26:05;;;;;;;12.18;10.88;;;22.90;91.80;;;;;;5055284;28;20064;-85
2023/06/18 08:28:30;;;;;;;11.55;10.57;;;22.90;91.90;;;;;;5055764;28;20029;-86
2023/06/18 08:30:56;;;;;;;12.23;11.13;;;22.90;91.70;;;;;;5054070;28;20032;-86
2023/06/18 08:33:22;;;;;;;10.38;8.23;;;22.90;92.00;;;;;;5054957;28;20097;-87
2023/06/18 08:35:47;;;;;;;12.18;11.02;;;22.90;92.00;;;;;;5054886;28;20033;-87
2023/06/18 08:38:13;;;;;;;12.80;9.98;;;23.00;91.90;;;;;;5054613;28;20029;-87
2023/06/18 08:40:49;;;;;;;13.63;9.82;;;23.00;92.10;;;;;;5055169;28;20029;-86
2023/06/18 08:43:21;;;;;;;10.02;8.95;;;23.00;92.00;;;;;;5055196;28;20039;-84
2023/06/18 08:45:50;;;;;;;9.95;9.00;;;23.40;92.30;;;;;;5054362;28;20032;-88
2023/06/18 08:48:17;;;;;;;12.55;10.50;;;23.10;91.60;;;;;;5054213;28;20021;-88
2023/06/18 08:50:43;;;;;;;11.65;10.50;;;23.10;92.00;;;;;;5052153;28;20475;-85
2023/06/18 08:53:15;;;;;;;13.27;10.13;;;23.80;92.00;;;;;;5052732;28;20025;-87
2023/06/18 08:55:42;;;;;;;14.73;10.70;;;23.20;91.70;;;;;;5052694;28;20036;-83
2023/06/18 08:58:14;;;;;;;10.77;8.77;;;23.20;91.70;;;;;;5051777;28;20068;-86
2023/06/18 09:00:40;;;;;;;13.30;9.25;;;23.20;91.80;;;;;;5051884;28;20029;-87
2023/06/18 09:03:06;;;;;;;14.43;10.90;;;23.20;91.70;;;;;;5052782;28;20063;-87
2023/06/18 09:05:32;;;;;;;10.05;9.07;;;23.20;91.80;;;;;;5052675;28;20469;-84
2023/06/18 09:07:59;;;;;;;10.40;9.40;;;23.10;91.70;;;;;;5052078;28;20035;-88
2023/06/18 09:10:25;;;;;;;11.15;10.15;;;23.30;92.00;;;;;;5052981;28;20493;-87
2023/06/18 09:12:51;;;;;;;10.18;8.68;;;23.40;91.80;;;;;;5052296;28;20028;-86
2023/06/18 09:15:17;;;;;;;11.48;9.40;;;23.80;92.10;;;;;;5052793;28;20024;-86
2023/06/18 09:17:51;;;;;;;11.13;10.02;;;23.50;92.20;;;;;;5052340;28;20055;-86
2023/06/18 09:20:19;;;;;;;16.52;11.23;;;23.40;92.40;;;;;;5052733;28;20025;-89
2023/06/18 09:22:47;;;;;;;13.43;10.05;;;23.40;92.20;;;;;;5053862;28;20045;-86
2023/06/18 09:25:23;;;;;;;13.82;10.13;;;23.40;92.30;;;;;;5054032;28;20047;-86
2023/06/18 09:27:49;;;;;;;11.05;9.93;;;23.50;92.40;;;;;;5053338;28;20025;-89
2023/06/18 09:30:23;;;;;;;12.80;9.30;;;24.10;92.50;;;;;;5054386;28;20461;-87
2023/06/18 09:32:49;;;;;;;11.30;10.13;;;23.80;92.40;;;;;;5054103;28;20029;-85
2023/06/18 09:35:17;;;;;;;12.50;11.18;;;23.40;92.30;;;;;;5053152;28;20025;-88
2023/06/18 09:37:43;;;;;;;16.15;11.43;;;23.50;92.70;;;;;;5054170;28;20028;-87
2023/06/18 09:40:22;;;;;;;11.65;10.65;;;23.50;92.50;;;;;;5054483;28;20032;-87
2023/06/18 09:42:49;;;;;;;12.13;10.52;;;23.50;92.50;;;;;;5053314;28;20499;-87
2023/06/18 09:45:16;;;;;;;12.80;11.27;;;23.60;92.50;;;;;;5053851;28;20048;-86
2023/06/18 09:47:45;;;;;;;16.05;12.90;;;23.60;92.50;;;;;;5053960;28;20028;-86
2023/06/18 09:50:11;;;;;;;11.15;10.27;;;23.60;93.00;;;;;;5053451;28;20072;-86
2023/06/18 09:52:48;;;;;;;12.05;10.35;;;23.80;92.70;;;;;;5054080;28;20469;-86
2023/06/18 09:55:27;;;;;;;15.48;12.00;;;24.00;92.70;;;;;;5052556;28;20377;-86
2023/06/18 09:57:52;;;;;;;20.38;11.57;;;23.60;92.80;;;;;;5053261;28;20025;-88
2023/06/18 10:00:19;;;;;;;12.30;11.13;;;23.50;92.50;;;;;;5053933;28;20388;-86
2023/06/18 10:02:44;;;;;;;17.25;10.48;;;23.60;92.70;;;;;;5051972;28;20507;-87
2023/06/18 10:05:10;;;;;;;12.85;11.30;;;24.30;93.20;;;;;;5053588;28;20029;-86
2023/06/18 10:07:39;;;;;;;11.70;10.57;;;23.60;93.30;;;;;;5053450;28;20031;-86
2023/06/18 10:10:10;;;;;;;15.95;10.10;;;23.70;93.30;;;;;;5052934;28;20403;-88
2023/06/18 10:12:36;;;;;;;14.13;10.43;;;23.60;93.00;;;;;;5055718;28;20005;-88
2023/06/18 10:15:02;;;;;;;11.05;9.88;;;23.60;93.40;;;;;;5049270;28;20079;-87
2023/06/18 10:17:34;;;;;;;12.00;10.07;;;23.60;93.50;;;;;;5053764;28;20049;-87
2023/06/18 10:20:04;;;;;;;11.77;9.32;;;23.70;93.40;;;;;;5050432;28;20090;-87
2023/06/18 10:22:34;;;;;;;9.90;8.90;;;23.80;93.30;;;;;;5052305;28;20037;-86
2023/06/18 10:25:05;;;;;;;7.90;7.20;;;23.70;93.40;;;;;;5046706;28;20045;-86
2023/06/18 10:27:31;;;;;;;9.85;8.52;;;23.70;93.30;;;;;;5043744;28;20029;-85
2023/06/18 10:29:57;;;;;;;9.18;8.40;;;23.70;93.40;;;;;;5052680;28;20142;-83
2023/06/18 10:32:24;;;;;;;15.63;9.55;;;23.60;93.40;;;;;;5051130;28;20060;-85
2023/06/18 10:34:51;;;;;;;12.65;8.35;;;23.70;93.50;;;;;;5051816;28;20318;-82
2023/06/18 10:37:18;;;;;;;10.13;9.07;;;23.70;93.40;;;;;;5050831;28;20067;-82
2023/06/18 10:39:45;;;;;;;10.70;8.13;;;23.70;93.90;;;;;;5051843;28;20033;-86
2023/06/18 10:42:12;;;;;;;9.93;8.93;;;23.70;94.20;;;;;;5050066;28;20524;-83
2023/06/18 10:44:57;;;;;;;8.90;8.00;;;23.70;94.00;;;;;;5050138;28;20044;-83
2023/06/18 10:47:28;;;;;;;9.68;8.80;;;23.70;95.00;;;;;;5051106;28;20064;-85
2023/06/18 10:50:02;;;;;;;;;;;23.60;95.10;;;;;;5050707;28;20025;-88
2023/06/18 10:52:35;;;;;;;10.10;9.15;;;23.70;95.20;;;;;;5050847;28;19995;-83
2023/06/18 10:55:21;;;;;;;14.25;9.13;;;23.70;95.00;;;;;;5044936;28;20477;-82
2023/06/18 10:57:55;;;;;;;9.10;8.10;;;23.60;94.70;;;;;;5051162;28;20029;-83
2023/06/18 11:00:29;;;;;;;9.43;7.55;;;23.70;94.60;;;;;;5051223;28;20025;-82
2023/06/18 11:03:19;;;;;;;8.73;7.80;;;23.70;94.60;;;;;;5052173;28;20060;-83
2023/06/18 11:05:46;;;;;;;;;;;23.80;95.00;;;;;;5051057;28;20116;-84
2023/06/18 11:09:11;;;;;;;8.07;7.45;;;23.70;94.50;;;;;;5051597;28;20368;-87
2023/06/18 11:11:59;;;;;;;8.75;8.05;;;23.70;94.50;;;;;;4988670;28;20058;-86
2023/06/18 11:14:26;;;;;;;9.20;8.35;;;23.80;95.30;;;;;;5018118;28;20037;-83
2023/06/18 11:17:11;;;;;;;9.55;8.15;;;23.90;95.10;;;;;;5052012;28;20063;-82
2023/06/18 11:19:37;;;;;;;8.82;7.63;;;23.70;94.70;;;;;;5051773;28;20029;-83
2023/06/18 11:22:03;;;;;;;9.68;7.65;;;23.80;94.60;;;;;;5051814;28;20048;-83
2023/06/18 11:24:28;;;;;;;8.10;7.30;;;23.80;94.70;;;;;;5051794;28;20040;-83
2023/06/18 11:26:55;;;;;;;9.80;8.18;;;23.80;94.70;;;;;;5050936;28;20032;-83
2023/06/18 11:29:21;;;;;;;8.50;7.80;;;23.90;94.50;;;;;;5051698;28;20029;-83
2023/06/18 11:31:47;;;;;;;9.25;7.50;;;23.90;94.50;;;;;;5051649;28;20029;-83
2023/06/18 11:34:12;;;;;;;9.35;7.78;;;23.90;94.50;;;;;;5050725;28;20111;-83
2023/06/18 11:36:41;;;;;;;7.65;7.05;;;23.90;94.60;;;;;;5051795;28;20029;-83
2023/06/18 11:39:06;;;;;;;8.10;7.18;;;23.80;94.80;;;;;;5052855;28;20025;-83
2023/06/18 11:41:33;;;;;;;7.28;6.63;;;24.00;94.30;;;;;;5055132;28;20032;-83
2023/06/18 11:44:02;;;;;;;11.10;7.15;;;24.00;94.30;;;;;;5055572;28;20094;-87
2023/06/18 11:46:35;;;;;;;7.50;6.90;;;24.00;94.20;;;;;;5055928;28;20071;-86
2023/06/18 11:49:01;;;;;;;15.57;7.22;;;24.00;94.10;;;;;;5054927;28;20555;-83
2023/06/18 11:51:29;;;;;;;8.02;7.43;;;24.10;94.40;;;;;;5055428;28;20079;-84
2023/06/18 11:53:54;;;;;;;8.65;7.95;;;24.10;94.50;;;;;;5055279;28;20077;-85
2023/06/18 11:56:28;;;;;;;9.23;8.20;;;23.90;94.40;;;;;;5062650;22;20052;-86
2023/06/18 11:58:56;;;;;;;8.85;8.07;;;24.00;94.60;;;;;;5039968;28;20112;-85
2023/06/18 12:01:26;;;;;;;8.65;7.95;;;24.00;94.40;;;;;;5035627;28;20036;-90
2023/06/18 12:04:00;;;;;;;10.30;7.53;;;24.10;94.70;;;;;;5038783;28;20036;-91
2023/06/18 12:06:26;;;;;;;9.90;8.13;;;24.10;94.00;;;;;;5049795;28;20013;-92
2023/06/18 12:08:52;;;;;;;7.80;7.13;;;24.10;94.10;;;;;;5041245;28;20489;-88
2023/06/18 12:11:48;;;;;;;9.25;7.15;;;24.10;94.20;;;;;;5040019;28;20017;-89
2023/06/18 12:14:35;;;;;;;8.45;7.80;;;24.20;94.10;;;;;;5039110;28;20025;-87
2023/06/18 12:17:10;;;;;;;10.23;7.18;;;24.20;93.90;;;;;;5052700;28;20767;-88
2023/06/18 12:19:39;;;;;;;9.02;6.55;;;24.10;93.90;;;;;;5049260;28;20017;-88
2023/06/18 12:22:05;;;;;;;8.82;6.95;;;24.10;94.10;;;;;;5040213;28;20029;-87
2023/06/18 12:24:32;;;;;;;8.60;6.65;;;24.30;94.80;;;;;;5034154;28;20366;-89
2023/06/18 12:26:58;;;;;;;9.55;6.70;;;24.00;94.70;;;;;;5034890;28;20026;-88
2023/06/18 12:29:26;;;;;;;7.32;6.63;;;24.00;94.60;;;;;;5035531;28;20362;-88
2023/06/18 12:32:04;;;;;;;9.38;6.85;;;24.00;94.60;;;;;;5034658;28;20021;-89
2023/06/18 12:34:35;;;;;;;8.52;7.82;;;24.00;94.80;;;;;;5035798;28;20033;-88
2023/06/18 12:37:01;;;;;;;7.28;6.68;;;24.00;94.80;;;;;;5047506;28;20036;-89
2023/06/18 12:39:26;;;;;;;7.45;6.75;;;24.10;94.90;;;;;;5055832;28;20380;-89
2023/06/18 12:41:52;;;;;;;12.50;7.55;;;23.90;94.40;;;;;;5055635;28;20020;-90
2023/06/18 12:44:19;;;;;;;7.30;6.70;;;24.60;94.30;;;;;;5054575;28;20087;-89
2023/06/18 12:47:04;;;;;;;10.45;6.95;;;24.00;94.50;;;;;;5055255;28;20025;-89
2023/06/18 12:49:43;;;;;;;7.20;6.70;;;24.00;94.20;;;;;;5055449;28;20029;-90
2023/06/18 12:52:19;;;;;;;7.77;6.93;;;24.10;94.10;;;;;;5054076;28;20025;-89
2023/06/18 12:54:45;;;;;;;7.55;7.00;;;24.10;94.40;;;;;;5054895;28;20115;-90
2023/06/18 12:57:27;;;;;;;8.68;7.10;;;24.10;94.30;;;;;;5055219;28;20068;-90
2023/06/18 12:59:52;;;;;;;8.98;7.20;;;24.70;94.30;;;;;;5054705;28;20428;-89